Time;durP1;ratioP1;P1;durP2;ratioP2;P2;SDS_P1;SDS_P2;PMS_P1;PMS_P2;Temp;Humidity;BMP_temperature;BMP_pressure;BME280_temperature;BME280_humidity;BME280_pressure;Samples;Min_cycle;Max_cycle;Signal;HPM_P1;HPM_P2
2023/09/27 00:00:36;;;;;;;6.45;5.32;;;14.30;99.90;;;;;;5049648;28;20093;-64
2023/09/27 00:03:03;;;;;;;6.93;5.75;;;14.30;99.90;;;;;;5044876;28;20058;-64
2023/09/27 00:05:29;;;;;;;8.05;6.13;;;14.20;99.90;;;;;;5031314;28;20041;-64
2023/09/27 00:07:56;;;;;;;6.65;5.60;;;14.20;99.90;;;;;;5050671;28;20041;-64
2023/09/27 00:10:22;;;;;;;11.48;6.32;;;14.20;99.90;;;;;;5047787;28;20049;-64
2023/09/27 00:12:48;;;;;;;7.80;5.60;;;14.20;99.90;;;;;;5038714;28;20049;-64
2023/09/27 00:15:14;;;;;;;8.23;5.95;;;14.20;99.90;;;;;;5049793;28;20045;-64
2023/09/27 00:17:41;;;;;;;8.88;6.18;;;14.20;99.90;;;;;;5049517;28;20041;-64
2023/09/27 00:20:10;;;;;;;9.15;6.43;;;14.20;99.90;;;;;;5035637;28;20487;-64
2023/09/27 00:22:37;;;;;;;11.45;6.65;;;14.20;99.90;;;;;;5049248;28;20106;-64
2023/09/27 00:25:04;;;;;;;7.50;6.20;;;14.20;99.90;;;;;;5048889;28;20052;-64
2023/09/27 00:27:31;;;;;;;6.63;5.97;;;14.20;99.90;;;;;;5048893;28;20080;-64
2023/09/27 00:29:57;;;;;;;6.68;6.13;;;14.10;99.90;;;;;;5048734;28;20143;-64
2023/09/27 00:32:23;;;;;;;8.23;6.35;;;14.10;99.90;;;;;;5040649;28;20091;-64
2023/09/27 00:34:49;;;;;;;10.38;6.13;;;14.10;99.90;;;;;;5042892;28;20059;-64
2023/09/27 00:37:15;;;;;;;6.85;6.05;;;14.10;99.90;;;;;;5048786;28;20381;-64
2023/09/27 00:39:41;;;;;;;8.07;5.47;;;14.10;99.90;;;;;;5048815;28;20052;-64
2023/09/27 00:42:07;;;;;;;9.30;6.07;;;14.00;99.90;;;;;;5042685;28;20511;-64
2023/09/27 00:44:33;;;;;;;10.68;6.15;;;14.00;99.90;;;;;;5030213;28;20080;-64
2023/09/27 00:46:59;;;;;;;8.75;6.75;;;14.00;99.90;;;;;;5036702;28;20045;-64
2023/09/27 00:49:25;;;;;;;7.40;6.60;;;14.00;99.90;;;;;;5033867;28;20053;-64
2023/09/27 00:51:52;;;;;;;8.10;6.00;;;13.90;99.90;;;;;;5039789;28;20467;-64
2023/09/27 00:54:18;;;;;;;10.45;6.78;;;13.90;99.90;;;;;;5031786;28;20375;-64
2023/09/27 00:56:47;;;;;;;8.50;6.88;;;13.80;99.90;;;;;;5039321;28;20044;-64
2023/09/27 00:59:15;;;;;;;12.40;7.72;;;13.80;99.90;;;;;;5035857;28;20160;-64
2023/09/27 01:01:41;;;;;;;10.10;7.15;;;13.80;99.90;;;;;;5041120;28;20105;-64
2023/09/27 01:04:08;;;;;;;13.63;7.72;;;13.80;99.90;;;;;;5039602;28;20418;-64
2023/09/27 01:06:34;;;;;;;16.50;7.95;;;13.80;99.90;;;;;;5036091;28;20452;-64
2023/09/27 01:09:03;;;;;;;13.38;7.63;;;13.80;99.90;;;;;;5039006;28;20091;-64
2023/09/27 01:11:29;;;;;;;11.13;7.68;;;13.80;99.90;;;;;;5047867;28;20059;-64
2023/09/27 01:13:55;;;;;;;9.95;7.45;;;13.80;99.90;;;;;;5061288;28;20095;-64
2023/09/27 01:16:20;;;;;;;11.00;8.10;;;13.80;99.90;;;;;;5036085;28;20490;-64
2023/09/27 01:18:46;;;;;;;10.45;7.95;;;13.80;99.90;;;;;;5046532;28;20041;-64
2023/09/27 01:21:12;;;;;;;10.18;8.18;;;13.80;99.90;;;;;;5054587;28;20037;-64
2023/09/27 01:23:41;;;;;;;15.70;7.50;;;13.80;99.90;;;;;;5048071;28;20953;-64
2023/09/27 01:26:08;;;;;;;12.50;8.13;;;13.80;99.90;;;;;;5064570;28;20369;-64
2023/09/27 01:28:35;;;;;;;10.65;7.72;;;13.80;99.90;;;;;;5047421;28;20186;-64
2023/09/27 01:31:01;;;;;;;11.75;8.55;;;13.80;99.90;;;;;;5048702;28;20045;-64
2023/09/27 01:33:27;;;;;;;9.93;7.88;;;13.80;99.90;;;;;;5048772;28;20047;-64
2023/09/27 01:35:54;;;;;;;11.32;8.30;;;13.80;99.90;;;;;;5046428;28;20037;-64
2023/09/27 01:38:19;;;;;;;9.15;8.18;;;13.80;99.90;;;;;;5045961;28;20040;-64
2023/09/27 01:40:45;;;;;;;9.60;8.57;;;13.80;99.90;;;;;;5046223;28;20426;-64
2023/09/27 01:43:11;;;;;;;14.20;8.20;;;13.80;99.90;;;;;;5048957;28;20044;-64
2023/09/27 01:45:38;;;;;;;12.73;8.90;;;13.80;99.90;;;;;;5046033;28;20037;-64
2023/09/27 01:48:04;;;;;;;8.82;7.93;;;13.80;99.90;;;;;;5048325;28;20495;-64
2023/09/27 01:50:33;;;;;;;10.80;7.78;;;13.80;99.90;;;;;;5048422;28;20068;-64
2023/09/27 01:52:59;;;;;;;11.07;7.80;;;13.80;99.90;;;;;;5063143;28;20048;-64
2023/09/27 01:55:25;;;;;;;8.52;7.65;;;13.80;99.90;;;;;;5063751;28;20041;-65
2023/09/27 01:57:52;;;;;;;13.02;8.32;;;13.80;99.90;;;;;;5041029;28;20048;-64
2023/09/27 02:00:19;;;;;;;13.20;8.73;;;13.80;99.90;;;;;;5048481;28;20041;-64
2023/09/27 02:02:49;;;;;;;10.02;7.75;;;13.70;99.90;;;;;;5047150;28;20095;-64
2023/09/27 02:05:15;;;;;;;;;;;13.70;99.90;;;;;;5047737;28;20107;-64
2023/09/27 02:07:41;;;;;;;11.00;8.93;;;13.80;99.90;;;;;;5036811;28;19924;-64
2023/09/27 02:10:08;;;;;;;17.15;8.48;;;13.70;99.90;;;;;;5046720;28;20096;-64
2023/09/27 02:12:34;;;;;;;11.40;8.35;;;13.70;99.90;;;;;;5047784;28;20487;-64
2023/09/27 02:15:00;;;;;;;12.05;7.90;;;13.70;99.90;;;;;;5046823;28;20526;-64
2023/09/27 02:17:25;;;;;;;10.60;7.88;;;13.70;99.90;;;;;;5061451;28;20453;-64
2023/09/27 02:19:51;;;;;;;16.55;8.48;;;13.70;99.90;;;;;;5045704;28;20048;-64
2023/09/27 02:22:18;;;;;;;11.13;8.13;;;13.70;99.90;;;;;;5048400;28;20395;-64
2023/09/27 02:24:44;;;;;;;14.70;8.45;;;13.70;99.90;;;;;;5046707;28;20500;-64
2023/09/27 02:27:10;;;;;;;10.52;7.95;;;13.70;99.90;;;;;;5035831;28;20459;-64
2023/09/27 02:29:42;;;;;;;14.07;8.38;;;13.70;99.90;;;;;;5043112;28;20067;-64
2023/09/27 02:32:08;;;;;;;18.52;8.38;;;13.70;99.90;;;;;;5046544;28;20123;-64
2023/09/27 02:34:35;;;;;;;17.30;9.05;;;13.70;99.90;;;;;;5063182;28;20052;-64
2023/09/27 02:37:01;;;;;;;14.13;8.90;;;13.60;99.90;;;;;;5061786;28;20041;-64
2023/09/27 02:39:28;;;;;;;9.93;8.25;;;13.60;99.90;;;;;;5047610;28;20131;-64
2023/09/27 02:41:59;;;;;;;11.95;9.02;;;13.70;99.90;;;;;;5046783;28;20049;-64
2023/09/27 02:44:26;;;;;;;10.52;8.57;;;13.60;99.90;;;;;;5045727;28;20124;-64
2023/09/27 02:46:53;;;;;;;11.15;8.52;;;13.60;99.90;;;;;;5045724;28;20537;-64
2023/09/27 02:49:22;;;;;;;14.05;8.43;;;13.60;99.90;;;;;;5061786;28;20053;-64
2023/09/27 02:51:51;;;;;;;14.93;9.20;;;13.60;99.90;;;;;;5042556;28;20037;-64
2023/09/27 02:54:17;;;;;;;;;;;13.60;99.90;;;;;;5042470;28;20088;-64
2023/09/27 02:56:43;;;;;;;9.05;7.65;;;13.60;99.90;;;;;;5044489;28;20312;-64
2023/09/27 02:59:13;;;;;;;11.05;7.95;;;13.60;99.90;;;;;;5045733;28;20476;-64
2023/09/27 03:01:43;;;;;;;11.07;8.43;;;13.50;99.90;;;;;;5025547;28;20052;-64
2023/09/27 03:04:10;;;;;;;12.98;8.10;;;13.60;99.90;;;;;;5046967;28;20049;-64
2023/09/27 03:06:41;;;;;;;12.25;8.15;;;13.60;99.90;;;;;;5045989;28;20080;-64
2023/09/27 03:09:11;;;;;;;13.52;8.40;;;13.60;99.90;;;;;;5047420;28;20061;-64
2023/09/27 03:11:39;;;;;;;13.80;8.68;;;13.60;99.90;;;;;;5044536;28;20121;-64
2023/09/27 03:14:05;;;;;;;12.23;9.85;;;13.60;99.90;;;;;;5046108;28;20064;-64
2023/09/27 03:16:30;;;;;;;11.75;8.90;;;13.50;99.90;;;;;;5044590;28;20045;-64
2023/09/27 03:18:58;;;;;;;13.02;8.52;;;13.60;99.90;;;;;;5047474;28;20076;-64
2023/09/27 03:21:26;;;;;;;14.73;9.30;;;13.50;99.90;;;;;;5041053;28;20044;-64
2023/09/27 03:23:53;;;;;;;11.52;8.57;;;13.50;99.90;;;;;;5042543;28;20068;-64
2023/09/27 03:26:20;;;;;;;9.63;8.48;;;13.50;99.90;;;;;;5047602;28;20364;-64
2023/09/27 03:28:46;;;;;;;10.75;9.10;;;13.40;99.90;;;;;;5043830;28;20049;-64
2023/09/27 03:31:12;;;;;;;14.27;8.60;;;13.40;99.90;;;;;;5047154;28;20091;-64
2023/09/27 03:33:37;;;;;;;12.00;9.75;;;13.40;99.90;;;;;;5043566;28;20041;-64
2023/09/27 03:36:04;;;;;;;13.07;9.25;;;13.40;99.90;;;;;;5047647;28;20167;-64
2023/09/27 03:38:29;;;;;;;12.45;9.35;;;13.40;99.90;;;;;;5046060;28;20036;-64
2023/09/27 03:40:55;;;;;;;13.52;9.07;;;13.40;99.90;;;;;;5046611;28;20407;-64
2023/09/27 03:43:21;;;;;;;10.65;9.38;;;13.40;99.90;;;;;;5060719;28;20065;-64
2023/09/27 03:45:48;;;;;;;12.73;9.02;;;13.40;99.90;;;;;;5045595;28;20135;-64
2023/09/27 03:48:14;;;;;;;9.30;8.32;;;13.40;99.90;;;;;;5047138;28;20080;-64
2023/09/27 03:50:40;;;;;;;16.00;9.50;;;13.40;99.90;;;;;;5060661;28;20037;-64
2023/09/27 03:53:06;;;;;;;15.82;9.68;;;13.40;99.90;;;;;;5045519;28;20445;-64
2023/09/27 03:55:32;;;;;;;13.85;10.10;;;13.40;99.90;;;;;;5045671;28;20037;-64
2023/09/27 03:57:57;;;;;;;12.88;10.02;;;13.40;99.90;;;;;;5046968;28;20044;-64
2023/09/27 04:00:23;;;;;;;15.70;10.45;;;13.40;99.90;;;;;;5045071;28;20048;-64
2023/09/27 04:02:49;;;;;;;12.52;9.60;;;13.40;99.90;;;;;;5044288;28;20033;-64
2023/09/27 04:05:18;;;;;;;17.00;10.48;;;13.40;99.90;;;;;;5045984;28;20041;-64
2023/09/27 04:07:44;;;;;;;15.02;10.20;;;13.40;99.90;;;;;;5045064;28;20292;-64
2023/09/27 04:10:10;;;;;;;16.90;11.07;;;13.40;99.90;;;;;;5046978;28;20060;-64
2023/09/27 04:12:36;;;;;;;15.88;10.40;;;13.40;99.90;;;;;;5044629;28;20518;-64
2023/09/27 04:15:06;;;;;;;14.20;9.15;;;13.40;99.90;;;;;;5043155;28;20134;-64
2023/09/27 04:17:32;;;;;;;14.13;10.27;;;13.40;99.90;;;;;;5046310;28;20079;-64
2023/09/27 04:19:59;;;;;;;12.32;9.77;;;13.30;99.90;;;;;;5046348;28;20044;-64
2023/09/27 04:22:24;;;;;;;15.60;9.95;;;13.30;99.90;;;;;;5045741;28;20050;-64
2023/09/27 04:24:50;;;;;;;12.85;10.32;;;13.30;99.90;;;;;;5043020;28;20057;-64
2023/09/27 04:27:16;;;;;;;13.13;10.13;;;13.30;99.90;;;;;;5039347;28;20041;-64
2023/09/27 04:29:42;;;;;;;15.30;9.70;;;13.20;99.90;;;;;;5043336;28;20045;-64
2023/09/27 04:32:07;;;;;;;14.18;9.68;;;13.20;99.90;;;;;;5046806;28;20195;-64
2023/09/27 04:34:33;;;;;;;12.30;10.07;;;13.20;99.90;;;;;;5047399;28;20049;-64
2023/09/27 04:36:59;;;;;;;14.15;9.65;;;13.20;99.90;;;;;;5048630;28;20052;-64
2023/09/27 04:39:27;;;;;;;14.30;9.73;;;13.10;99.90;;;;;;5050066;28;20537;-64
2023/09/27 04:41:53;;;;;;;15.57;10.73;;;13.10;99.90;;;;;;5047243;28;20075;-64
2023/09/27 04:44:19;;;;;;;17.33;10.93;;;13.20;99.90;;;;;;5065822;28;20461;-64
2023/09/27 04:46:45;;;;;;;15.05;10.95;;;13.10;99.90;;;;;;5061593;28;20058;-64
2023/09/27 04:49:11;;;;;;;13.25;10.00;;;13.10;99.90;;;;;;5048843;28;20041;-64
2023/09/27 04:51:37;;;;;;;14.50;10.35;;;13.10;99.90;;;;;;5048430;28;20044;-63
2023/09/27 04:54:03;;;;;;;12.98;10.23;;;13.00;99.90;;;;;;5049564;28;20044;-64
2023/09/27 04:56:32;;;;;;;16.17;10.32;;;13.10;99.90;;;;;;5041080;28;20116;-64
2023/09/27 04:59:01;;;;;;;22.80;11.20;;;13.00;99.90;;;;;;5034762;28;20045;-64
2023/09/27 05:01:27;;;;;;;16.90;10.80;;;13.00;99.90;;;;;;5065369;28;20045;-63
2023/09/27 05:03:53;;;;;;;12.80;10.98;;;13.00;99.90;;;;;;5047776;28;20052;-64
2023/09/27 05:06:19;;;;;;;13.05;10.50;;;12.90;99.90;;;;;;5046344;28;20042;-64
2023/09/27 05:08:45;;;;;;;16.15;11.27;;;12.90;99.90;;;;;;5044809;28;20449;-64
2023/09/27 05:11:11;;;;;;;24.15;13.00;;;12.90;99.90;;;;;;5049491;28;20053;-64
2023/09/27 05:13:37;;;;;;;15.35;11.48;;;13.00;99.90;;;;;;5047483;28;20402;-64
2023/09/27 05:16:03;;;;;;;13.80;11.30;;;13.00;99.90;;;;;;5048414;28;20029;-64
2023/09/27 05:18:29;;;;;;;15.60;12.15;;;13.00;99.90;;;;;;5040517;28;20162;-63
2023/09/27 05:20:55;;;;;;;14.98;10.27;;;13.00;99.90;;;;;;5045906;28;20136;-65
2023/09/27 05:23:20;;;;;;;15.20;11.48;;;13.10;99.90;;;;;;5049725;28;20153;-64
2023/09/27 05:25:47;;;;;;;14.18;10.82;;;13.10;99.90;;;;;;5046162;28;20076;-64
2023/09/27 05:28:12;;;;;;;13.27;10.60;;;13.10;99.90;;;;;;5036680;28;20042;-64
2023/09/27 05:30:38;;;;;;;13.43;10.65;;;13.00;99.90;;;;;;5030209;28;20052;-64
2023/09/27 05:33:07;;;;;;;17.38;11.95;;;13.00;99.90;;;;;;5016194;28;20088;-64
2023/09/27 05:35:33;;;;;;;12.73;10.73;;;13.00;99.90;;;;;;5036410;28;20048;-64
2023/09/27 05:37:59;;;;;;;16.67;10.82;;;13.00;99.90;;;;;;5032824;28;20056;-64
2023/09/27 05:40:24;;;;;;;15.23;10.63;;;12.90;99.90;;;;;;5039099;28;20052;-64
2023/09/27 05:42:50;;;;;;;13.45;10.98;;;12.90;99.90;;;;;;5034449;28;20596;-64
2023/09/27 05:45:16;;;;;;;13.77;10.45;;;12.90;99.90;;;;;;5031493;28;20095;-64
2023/09/27 05:47:42;;;;;;;14.32;11.27;;;13.00;99.90;;;;;;5030114;28;20053;-64
2023/09/27 05:50:09;;;;;;;15.38;10.82;;;13.00;99.90;;;;;;5032378;28;20041;-64
2023/09/27 05:52:35;;;;;;;12.63;10.32;;;13.00;99.90;;;;;;5030387;28;20049;-64
2023/09/27 05:55:05;;;;;;;18.45;10.93;;;13.10;99.90;;;;;;5032938;28;20045;-64
2023/09/27 05:57:32;;;;;;;18.27;10.50;;;13.10;99.90;;;;;;5031616;28;20073;-64
2023/09/27 05:59:58;;;;;;;15.77;11.82;;;13.10;99.90;;;;;;5040264;28;20107;-64
2023/09/27 06:02:30;;;;;;;15.88;11.40;;;13.10;99.90;;;;;;5046157;28;20040;-64
2023/09/27 06:04:57;;;;;;;12.63;10.40;;;13.20;99.90;;;;;;5044959;28;20041;-64
2023/09/27 06:07:23;;;;;;;17.55;10.82;;;13.30;99.90;;;;;;5033035;28;20045;-64
2023/09/27 06:09:50;;;;;;;17.98;11.25;;;13.30;99.90;;;;;;5038345;28;20050;-64
2023/09/27 06:12:16;;;;;;;13.27;10.80;;;13.40;99.90;;;;;;5035830;28;20510;-64
2023/09/27 06:14:42;;;;;;;13.68;10.10;;;13.40;99.90;;;;;;5032639;28;20049;-64
2023/09/27 06:17:09;;;;;;;13.38;10.88;;;13.50;99.90;;;;;;5029268;28;20047;-64
2023/09/27 06:19:35;;;;;;;13.75;10.98;;;13.50;99.90;;;;;;5035831;28;20112;-64
2023/09/27 06:22:05;;;;;;;14.35;11.10;;;13.60;99.90;;;;;;5036346;28;20560;-64
2023/09/27 06:24:31;;;;;;;16.85;11.50;;;13.60;99.90;;;;;;5018567;28;20108;-64
2023/09/27 06:26:58;;;;;;;16.05;11.68;;;13.70;99.90;;;;;;5031986;28;20077;-64
2023/09/27 06:29:23;;;;;;;15.25;11.38;;;13.70;99.90;;;;;;5032835;28;20483;-63
2023/09/27 06:31:50;;;;;;;13.38;10.90;;;13.80;99.90;;;;;;5034098;28;20108;-63
2023/09/27 06:34:19;;;;;;;16.52;11.35;;;13.80;99.90;;;;;;5036168;28;20360;-63
2023/09/27 06:36:48;;;;;;;14.77;12.25;;;13.90;99.90;;;;;;5033741;28;20046;-64
2023/09/27 06:39:14;;;;;;;16.75;12.35;;;13.90;99.90;;;;;;5036839;28;20041;-64
2023/09/27 06:41:41;;;;;;;18.80;12.27;;;13.90;99.90;;;;;;5039666;28;20054;-63
2023/09/27 06:44:07;;;;;;;17.60;12.32;;;14.00;99.90;;;;;;5046470;28;20470;-64
2023/09/27 06:46:36;;;;;;;20.13;12.38;;;14.10;99.90;;;;;;5041518;28;20565;-63
2023/09/27 06:49:03;;;;;;;18.47;12.73;;;14.10;99.90;;;;;;5035715;28;20049;-64
2023/09/27 06:51:30;;;;;;;17.10;12.43;;;14.10;99.90;;;;;;5041847;28;20295;-64
2023/09/27 06:53:56;;;;;;;19.20;12.90;;;14.20;99.90;;;;;;5032560;28;20115;-63
2023/09/27 06:56:22;;;;;;;18.38;12.32;;;14.30;99.90;;;;;;5053388;28;20522;-63
2023/09/27 06:58:49;;;;;;;16.83;11.60;;;14.30;99.90;;;;;;5041484;28;20046;-63
2023/09/27 07:01:15;;;;;;;17.95;13.48;;;14.30;99.90;;;;;;5035038;28;20625;-64
2023/09/27 07:03:41;;;;;;;17.25;11.95;;;14.30;99.90;;;;;;5035485;28;20034;-63
2023/09/27 07:06:07;;;;;;;17.08;12.38;;;14.30;99.90;;;;;;5041972;28;20174;-63
2023/09/27 07:08:33;;;;;;;15.32;12.63;;;14.40;99.90;;;;;;5042620;28;20255;-63
2023/09/27 07:11:07;;;;;;;21.85;12.90;;;14.40;99.90;;;;;;5047146;28;20049;-63
2023/09/27 07:13:34;;;;;;;17.27;13.23;;;14.50;99.90;;;;;;5039900;28;20415;-63
2023/09/27 07:16:02;;;;;;;18.65;13.30;;;14.60;99.90;;;;;;5047538;28;20052;-64
2023/09/27 07:18:35;;;;;;;17.92;13.38;;;14.80;99.90;;;;;;5035040;28;20049;-64
2023/09/27 07:21:00;;;;;;;25.95;13.55;;;14.80;99.90;;;;;;5038152;28;20067;-63
2023/09/27 07:23:26;;;;;;;17.77;13.30;;;15.00;99.90;;;;;;5033707;28;20046;-64
2023/09/27 07:25:52;;;;;;;22.05;12.95;;;15.10;99.90;;;;;;5040984;28;20255;-63
2023/09/27 07:28:18;;;;;;;25.75;14.30;;;15.20;99.90;;;;;;5040683;28;20616;-63
2023/09/27 07:30:45;;;;;;;20.80;14.27;;;15.20;99.90;;;;;;5020838;28;20519;-64
2023/09/27 07:33:11;;;;;;;21.70;14.57;;;15.20;99.90;;;;;;5035359;28;20060;-64
2023/09/27 07:35:43;;;;;;;20.98;14.63;;;15.30;99.90;;;;;;5035286;28;20099;-63
2023/09/27 07:38:13;;;;;;;22.67;15.07;;;15.40;99.90;;;;;;5040017;28;20044;-64
2023/09/27 07:40:39;;;;;;;23.05;15.68;;;15.50;99.90;;;;;;5033391;28;20048;-63
2023/09/27 07:43:06;;;;;;;25.35;15.77;;;15.60;99.90;;;;;;5038416;28;20053;-63
2023/09/27 07:45:35;;;;;;;33.58;17.10;;;15.70;99.90;;;;;;5034746;28;20146;-63
2023/09/27 07:48:01;;;;;;;21.53;15.70;;;15.90;99.90;;;;;;5038996;28;20108;-63
2023/09/27 07:50:28;;;;;;;21.27;16.00;;;16.10;99.90;;;;;;5038707;28;20108;-64
2023/09/27 07:52:54;;;;;;;21.85;15.90;;;16.20;99.90;;;;;;5038992;28;20124;-63
2023/09/27 07:55:21;;;;;;;25.92;15.23;;;16.30;99.90;;;;;;5037232;28;20045;-64
2023/09/27 07:57:49;;;;;;;21.85;14.50;;;16.30;99.90;;;;;;5039449;28;20044;-63
2023/09/27 08:00:18;;;;;;;19.88;14.52;;;16.30;99.90;;;;;;5042216;28;20498;-64
2023/09/27 08:02:45;;;;;;;22.38;13.98;;;16.30;99.90;;;;;;5053589;28;20048;-64
2023/09/27 08:05:14;;;;;;;19.55;14.80;;;16.30;99.90;;;;;;5037958;28;20049;-64
2023/09/27 08:07:40;;;;;;;20.30;15.43;;;16.30;99.90;;;;;;5037720;28;20045;-64
2023/09/27 08:10:07;;;;;;;17.45;14.18;;;16.40;99.90;;;;;;5044825;28;20060;-64
2023/09/27 08:12:34;;;;;;;21.33;14.73;;;16.60;99.90;;;;;;5048316;28;20063;-64
2023/09/27 08:15:03;;;;;;;21.40;15.15;;;16.60;99.90;;;;;;5048984;28;20053;-64
2023/09/27 08:17:30;;;;;;;20.58;14.63;;;16.70;99.90;;;;;;5049126;28;20099;-64
2023/09/27 08:19:56;;;;;;;24.88;15.77;;;16.80;99.90;;;;;;5049003;28;20098;-64
2023/09/27 08:22:21;;;;;;;18.38;14.80;;;16.90;99.90;;;;;;5039400;28;20049;-64
2023/09/27 08:24:47;;;;;;;30.45;14.80;;;17.10;99.90;;;;;;5048362;28;20041;-64
2023/09/27 08:27:17;;;;;;;19.98;14.40;;;17.30;99.90;;;;;;5048866;28;20080;-64
2023/09/27 08:29:43;;;;;;;24.40;14.52;;;17.50;99.90;;;;;;5050365;28;20037;-64
2023/09/27 08:32:09;;;;;;;22.70;15.15;;;17.80;99.90;;;;;;5045242;28;20093;-64
2023/09/27 08:34:35;;;;;;;22.88;14.38;;;18.10;99.90;;;;;;5041498;28;21015;-64
2023/09/27 08:37:02;;;;;;;21.10;14.73;;;18.20;99.90;;;;;;5044598;28;20132;-64
2023/09/27 08:39:27;;;;;;;21.83;14.43;;;18.30;99.90;;;;;;5046927;28;20087;-64
2023/09/27 08:41:58;;;;;;;22.38;14.23;;;18.50;99.90;;;;;;5041813;28;20060;-64
2023/09/27 08:44:24;;;;;;;20.05;13.23;;;18.70;99.90;;;;;;5029225;28;20369;-64
2023/09/27 08:46:54;;;;;;;21.10;14.07;;;18.80;99.90;;;;;;5043333;28;20330;-64
2023/09/27 08:49:23;;;;;;;21.15;13.25;;;18.90;99.90;;;;;;5028584;28;20048;-64
2023/09/27 08:51:50;;;;;;;20.77;13.87;;;19.00;99.90;;;;;;5030945;28;20050;-64
2023/09/27 08:54:17;;;;;;;18.05;14.45;;;19.10;99.90;;;;;;5029511;28;20041;-64
2023/09/27 08:56:49;;;;;;;19.95;13.70;;;19.30;99.90;;;;;;5045707;28;20052;-64
2023/09/27 08:59:20;;;;;;;18.40;13.25;;;19.30;99.90;;;;;;5034781;28;20106;-64
2023/09/27 09:01:47;;;;;;;20.17;13.35;;;19.30;99.90;;;;;;5045998;28;20666;-64
2023/09/27 09:04:13;;;;;;;18.55;12.10;;;19.40;99.90;;;;;;5048833;28;20053;-64
2023/09/27 09:06:40;;;;;;;20.13;12.63;;;19.50;99.90;;;;;;5046544;28;20495;-64
2023/09/27 09:09:11;;;;;;;19.67;12.35;;;19.60;99.90;;;;;;5046851;28;20498;-64
2023/09/27 09:11:47;;;;;;;17.55;11.77;;;19.60;99.90;;;;;;5038206;28;20128;-64
2023/09/27 09:14:17;;;;;;;14.98;10.65;;;19.60;99.90;;;;;;5048666;28;20560;-63
2023/09/27 09:16:49;;;;;;;;;;;19.60;99.90;;;;;;5065357;28;20037;-64
2023/09/27 09:19:19;;;;;;;13.23;9.88;;;19.70;99.90;;;;;;5047527;28;19925;-64
2023/09/27 09:21:54;;;;;;;19.70;11.13;;;19.80;99.90;;;;;;5040987;28;20971;-64
2023/09/27 09:24:20;;;;;;;23.00;10.93;;;20.00;99.90;;;;;;5047735;28;20059;-64
2023/09/27 09:26:46;;;;;;;22.80;10.57;;;20.20;99.90;;;;;;5064500;28;20052;-63
2023/09/27 09:29:12;;;;;;;15.68;10.27;;;20.30;99.90;;;;;;5049176;28;20094;-64
2023/09/27 09:31:38;;;;;;;21.50;10.40;;;20.40;99.90;;;;;;5057912;28;20041;-64
2023/09/27 09:34:08;;;;;;;19.85;10.95;;;20.50;99.90;;;;;;5040709;28;20049;-64
2023/09/27 09:36:34;;;;;;;18.40;10.70;;;20.70;99.90;;;;;;5047353;28;20509;-64
2023/09/27 09:39:14;;;;;;;15.75;10.05;;;20.70;99.90;;;;;;5049575;28;20578;-64
2023/09/27 09:41:51;;;;;;;12.77;9.70;;;20.70;99.90;;;;;;5031779;28;20119;-64
2023/09/27 09:44:22;;;;;;;16.05;8.38;;;20.80;99.90;;;;;;5037221;28;20081;-64
2023/09/27 09:46:51;;;;;;;12.38;8.02;;;20.80;99.90;;;;;;5038742;28;20046;-63
2023/09/27 09:49:17;;;;;;;;;;;20.90;99.90;;;;;;5036014;28;20048;-64
2023/09/27 09:51:48;;;;;;;17.30;8.05;;;20.90;99.90;;;;;;5035870;28;19924;-64
2023/09/27 09:54:32;;;;;;;12.75;7.13;;;21.00;99.90;;;;;;5037353;28;20045;-64
2023/09/27 09:57:00;;;;;;;10.15;7.38;;;21.10;99.90;;;;;;5040559;28;20042;-64
2023/09/27 09:59:41;;;;;;;12.75;7.00;;;21.30;99.90;;;;;;5032947;28;20041;-64
2023/09/27 10:02:23;;;;;;;10.45;6.93;;;21.30;99.90;;;;;;5035014;28;20029;-64
2023/09/27 10:04:55;;;;;;;9.60;5.35;;;21.30;99.90;;;;;;5030444;28;20040;-63
2023/09/27 10:07:25;;;;;;;9.07;5.10;;;21.20;99.90;;;;;;5032710;28;20048;-63
2023/09/27 10:09:52;;;;;;;6.30;4.53;;;21.20;99.90;;;;;;5032325;28;20076;-64
2023/09/27 10:12:21;;;;;;;11.63;4.70;;;21.10;99.90;;;;;;5029203;28;20069;-63
2023/09/27 10:14:48;;;;;;;10.27;3.95;;;21.00;99.90;;;;;;5029902;28;20055;-65
2023/09/27 10:17:21;;;;;;;9.32;4.22;;;21.00;99.90;;;;;;5038863;28;20147;-65
2023/09/27 10:20:13;;;;;;;8.07;3.97;;;20.90;99.90;;;;;;5039728;28;20319;-65
2023/09/27 10:22:43;;;;;;;9.10;4.90;;;20.90;99.90;;;;;;5044464;28;20106;-64
2023/09/27 10:25:25;;;;;;;10.02;3.88;;;20.90;99.90;;;;;;5044357;28;20131;-64
2023/09/27 10:28:38;;;;;;;8.65;3.50;;;20.90;99.90;;;;;;5030431;28;20443;-64
2023/09/27 10:31:05;;;;;;;10.18;4.10;;;21.10;99.90;;;;;;5045471;28;20037;-64
2023/09/27 10:33:31;;;;;;;22.52;5.45;;;21.30;99.90;;;;;;5033780;28;20075;-64
2023/09/27 10:36:22;;;;;;;9.88;5.10;;;21.40;99.90;;;;;;5040440;28;20084;-65
2023/09/27 10:38:50;;;;;;;13.98;9.02;;;21.40;99.90;;;;;;5041229;28;20089;-64
2023/09/27 10:41:38;;;;;;;16.80;8.63;;;21.50;99.90;;;;;;5039119;28;20054;-64
2023/09/27 10:44:04;;;;;;;12.15;8.32;;;21.50;99.90;;;;;;5035283;28;20049;-65
2023/09/27 10:46:48;;;;;;;7.75;5.10;;;21.60;99.90;;;;;;5040704;28;20048;-64
2023/09/27 10:49:24;;;;;;;8.50;5.40;;;21.70;99.90;;;;;;5027167;28;20046;-64
2023/09/27 10:51:52;;;;;;;9.20;5.10;;;21.70;99.90;;;;;;5027182;28;20049;-64
2023/09/27 10:54:24;;;;;;;8.50;4.95;;;21.70;99.90;;;;;;5031591;28;20033;-64
2023/09/27 10:56:56;;;;;;;10.57;5.25;;;21.60;99.90;;;;;;5028416;28;20111;-64
2023/09/27 10:59:30;;;;;;;11.70;5.32;;;21.50;99.90;;;;;;5041369;28;20532;-64
2023/09/27 11:01:56;;;;;;;9.70;5.38;;;21.40;99.90;;;;;;5032818;28;20052;-64
2023/09/27 11:04:23;;;;;;;8.40;5.85;;;21.40;99.90;;;;;;5027184;28;20077;-64
2023/09/27 11:06:50;;;;;;;6.00;5.05;;;21.30;99.90;;;;;;5026592;28;20048;-64
2023/09/27 11:09:19;;;;;;;8.40;4.97;;;21.30;99.90;;;;;;5031089;28;20044;-64
2023/09/27 11:11:50;;;;;;;12.05;4.95;;;21.30;99.90;;;;;;5034450;28;20085;-64
2023/09/27 11:14:43;;;;;;;7.40;4.70;;;21.30;99.90;;;;;;5039407;28;20056;-62
2023/09/27 11:17:28;;;;;;;7.38;5.50;;;21.30;99.90;;;;;;5026653;28;20407;-62
2023/09/27 11:20:15;;;;;;;9.13;5.40;;;21.40;99.90;;;;;;5056501;28;20511;-62
2023/09/27 11:26:59;;;;;;;9.55;6.22;;;21.40;99.90;;;;;;5047414;28;20083;-62
2023/09/27 11:29:38;;;;;;;7.97;5.60;;;21.40;99.90;;;;;;5038543;28;20064;-62
2023/09/27 11:32:04;;;;;;;8.90;6.03;;;21.40;99.90;;;;;;5039908;28;20049;-62
2023/09/27 11:38:38;;;;;;;7.72;6.03;;;21.30;99.90;;;;;;5006863;28;20044;-62
2023/09/27 11:44:32;;;;;;;7.78;5.80;;;21.10;99.90;;;;;;4990219;28;20042;-63
2023/09/27 11:47:18;;;;;;;9.88;6.13;;;21.00;99.90;;;;;;5012094;28;20053;-63
2023/09/27 11:49:44;;;;;;;10.18;5.70;;;21.00;99.90;;;;;;5008670;28;20042;-63
2023/09/27 11:52:11;;;;;;;6.30;5.43;;;21.00;99.90;;;;;;4993672;28;20527;-63
2023/09/27 11:54:45;;;;;;;6.10;5.07;;;21.00;99.90;;;;;;5012672;28;20129;-64
2023/09/27 11:57:10;;;;;;;9.10;5.32;;;21.00;99.90;;;;;;5012034;28;20452;-64
2023/09/27 11:59:44;;;;;;;6.70;4.80;;;21.00;99.90;;;;;;4996719;28;20046;-63
2023/09/27 12:02:10;;;;;;;8.75;5.32;;;21.10;99.90;;;;;;5009570;28;20559;-63
2023/09/27 12:04:35;;;;;;;7.53;5.82;;;21.10;99.90;;;;;;5011455;28;20054;-63
2023/09/27 12:07:01;;;;;;;6.93;5.38;;;21.10;99.90;;;;;;5002805;28;20105;-63
2023/09/27 12:09:27;;;;;;;8.10;5.35;;;21.20;99.90;;;;;;5009368;28;20049;-63
2023/09/27 12:11:53;;;;;;;10.02;5.60;;;21.30;99.90;;;;;;5009515;28;20045;-63
2023/09/27 12:14:19;;;;;;;8.90;5.50;;;21.30;99.90;;;;;;4993224;28;20631;-63
2023/09/27 12:16:45;;;;;;;9.30;6.07;;;21.40;99.90;;;;;;5007348;28;20174;-63
2023/09/27 12:19:11;;;;;;;7.28;5.53;;;21.50;99.90;;;;;;5009669;28;20067;-63
2023/09/27 12:21:36;;;;;;;6.72;5.70;;;21.60;99.90;;;;;;5000457;28;20101;-63
2023/09/27 12:24:03;;;;;;;8.43;5.47;;;21.60;99.90;;;;;;4992568;28;20057;-63
2023/09/27 12:26:29;;;;;;;8.40;5.72;;;21.60;99.90;;;;;;5009611;28;20067;-63
2023/09/27 12:28:56;;;;;;;9.40;5.57;;;21.60;99.90;;;;;;5007327;28;20595;-63
2023/09/27 12:31:22;;;;;;;7.43;5.22;;;21.60;99.90;;;;;;5010134;28;20042;-63
2023/09/27 12:33:48;;;;;;;7.03;5.38;;;21.50;99.90;;;;;;5009357;28;20080;-63
2023/09/27 12:36:14;;;;;;;6.28;5.53;;;21.50;99.90;;;;;;5011283;28;20046;-63
2023/09/27 12:38:42;;;;;;;7.57;5.80;;;21.40;99.90;;;;;;5003831;28;20377;-63
2023/09/27 12:41:17;;;;;;;9.80;5.70;;;21.50;99.90;;;;;;5004127;28;20391;-63
2023/09/27 12:43:44;;;;;;;10.43;5.30;;;21.50;99.90;;;;;;5009852;28;20153;-63
2023/09/27 12:46:10;;;;;;;9.18;5.15;;;21.50;99.90;;;;;;5010183;28;20062;-63
2023/09/27 12:48:36;;;;;;;6.63;4.93;;;21.60;99.90;;;;;;5008512;28;20100;-63
2023/09/27 12:51:07;;;;;;;5.45;4.95;;;21.70;99.90;;;;;;4991664;28;20053;-63